createdAt,value
2019-04-22T00:00:41.214Z,13.6
2019-04-22T00:02:54.191Z,14.1
2019-04-22T00:05:13.007Z,15
2019-04-22T00:08:08.371Z,14.4
2019-04-22T00:10:46.526Z,11.8
2019-04-22T00:13:45.650Z,11.9
2019-04-22T00:16:46.746Z,12.2
2019-04-22T00:22:07.497Z,12.8
2019-04-22T00:25:06.881Z,12.3
2019-04-22T00:28:14.350Z,15.1
2019-04-22T00:31:26.542Z,15.3
2019-04-22T00:34:03.049Z,12.7
2019-04-22T00:36:54.118Z,12.2
2019-04-22T00:39:26.795Z,13
2019-04-22T00:42:40.782Z,13
2019-04-22T00:45:38.389Z,15.9
2019-04-22T00:48:26.942Z,13.4
2019-04-22T00:52:09.118Z,14.9
2019-04-22T00:55:05.299Z,13
2019-04-22T01:00:17.465Z,12.9
2019-04-22T01:03:01.462Z,11.7
2019-04-22T01:06:02.783Z,13.2
2019-04-22T01:09:04.214Z,11.5
2019-04-22T01:12:06.852Z,12.6
2019-04-22T01:14:53.627Z,14
2019-04-22T01:17:50.624Z,11.9
2019-04-22T01:23:10.680Z,12.4
2019-04-22T01:25:49.190Z,11.6
2019-04-22T01:28:30.027Z,12.3
2019-04-22T01:30:59.310Z,12.7
2019-04-22T01:33:19.063Z,14.5
2019-04-22T01:35:43.256Z,13.1
2019-04-22T01:40:44.753Z,12.5
2019-04-22T01:46:24.559Z,13.9
2019-04-22T01:49:27.144Z,12.2
2019-04-22T01:52:15.135Z,12.3
2019-04-22T01:55:17.306Z,11.8
2019-04-22T01:58:16.767Z,12.7
2019-04-22T02:01:04.356Z,10.7
2019-04-22T02:06:29.940Z,11.2
2019-04-22T02:11:38.710Z,15.8
2019-04-22T02:14:43.850Z,12.4
2019-04-22T02:17:24.818Z,11.4
2019-04-22T02:20:30.972Z,12.8
2019-04-22T02:23:30.050Z,12.4
2019-04-22T02:26:31.108Z,12.4
2019-04-22T02:29:28.609Z,11.6
2019-04-22T02:34:32.314Z,12.7
2019-04-22T02:37:18.440Z,10.5
2019-04-22T02:40:55.765Z,11.9
2019-04-22T02:44:16.170Z,10.8
2019-04-22T02:47:19.947Z,11.4
2019-04-22T02:50:36.013Z,11.6
2019-04-22T02:57:54.516Z,11.1
2019-04-22T03:01:29.386Z,11.5
2019-04-22T03:06:42.544Z,11.5
2019-04-22T03:16:07.402Z,12.7
2019-04-22T03:21:17.336Z,12.3
2019-04-22T03:24:25.380Z,11.8
2019-04-22T03:27:58.074Z,12.2
2019-04-22T03:33:39.711Z,12.8
2019-04-22T03:40:19.419Z,11
2019-04-22T03:44:07.450Z,11.7
2019-04-22T03:49:45.172Z,12.9
2019-04-22T03:52:26.574Z,12.5
2019-04-22T03:57:49.565Z,11.6
2019-04-22T04:00:42.787Z,12
2019-04-22T04:03:11.471Z,14.6
2019-04-22T04:05:58.735Z,10.3
2019-04-22T04:08:32.630Z,11.3
2019-04-22T04:11:58.753Z,11.9
2019-04-22T04:19:12.881Z,10.9
2019-04-22T04:21:57.042Z,12
2019-04-22T04:25:05.125Z,13.2
2019-04-22T04:30:18.533Z,13.8
2019-04-22T04:35:52.425Z,12.4
2019-04-22T04:41:15.086Z,12.6
2019-04-22T04:44:10.192Z,14.3
2019-04-22T04:46:58.160Z,12.4
2019-04-22T04:54:12.140Z,12.1
2019-04-22T04:57:54.133Z,12.2
2019-04-22T05:00:56.946Z,11.3
2019-04-22T05:03:48.469Z,11.8
2019-04-22T05:06:32.885Z,12.3
2019-04-22T05:09:51.415Z,10.8
2019-04-22T05:12:51.726Z,10.8
2019-04-22T05:16:09.126Z,12.2
2019-04-22T05:19:25.153Z,10.6
2019-04-22T05:22:33.443Z,11.7
2019-04-22T05:25:26.381Z,15.3
2019-04-22T05:28:29.790Z,16.9
2019-04-22T05:31:13.830Z,12.4
2019-04-22T05:34:21.313Z,12.2
2019-04-22T05:39:05.608Z,12.3
2019-04-22T05:42:02.944Z,12.4
2019-04-22T05:45:10.018Z,10.6
2019-04-22T05:47:55.912Z,12
2019-04-22T05:50:22.709Z,12.5
2019-04-22T05:55:13.723Z,9.4
2019-04-22T05:58:14.019Z,11.1
2019-04-22T06:01:18.320Z,9.6
2019-04-22T06:06:13.605Z,9.8
2019-04-22T06:08:57.136Z,10.1
2019-04-22T06:11:51.420Z,9.6
2019-04-22T06:14:30.598Z,9.2
2019-04-22T06:17:29.891Z,11.5
2019-04-22T06:20:08.640Z,11
2019-04-22T06:22:50.202Z,12.4
2019-04-22T06:25:27.009Z,9.6
2019-04-22T06:28:53.085Z,11.6
2019-04-22T06:32:17.136Z,13.4
2019-04-22T06:35:23.113Z,11.6
2019-04-22T06:38:24.191Z,11.9
2019-04-22T06:41:13.236Z,9.9
2019-04-22T06:44:17.795Z,9.9
2019-04-22T06:47:39.444Z,9.9
2019-04-22T06:50:07.019Z,11.6
2019-04-22T06:53:16.111Z,11.3
2019-04-22T06:56:15.395Z,12
2019-04-22T06:59:06.475Z,12.2
2019-04-22T07:03:56.751Z,10.3
2019-04-22T07:06:25.921Z,14.1
2019-04-22T07:11:42.807Z,12.8
2019-04-22T07:14:08.667Z,11.6
2019-04-22T07:17:01.693Z,12.2
2019-04-22T07:26:19.833Z,11.7
2019-04-22T07:29:18.769Z,11
2019-04-22T07:32:20.445Z,12.4
2019-04-22T07:35:21.892Z,9.9
2019-04-22T07:38:42.166Z,9.9
2019-04-22T07:41:19.577Z,8.8
2019-04-22T07:44:16.359Z,9.6
2019-04-22T07:47:04.379Z,10.5
2019-04-22T07:50:12.635Z,10.8
2019-04-22T07:53:27.609Z,8.7
2019-04-22T07:55:57.211Z,10.2
2019-04-22T07:58:35.330Z,8.9
2019-04-22T08:01:08.405Z,12.8
2019-04-22T08:03:51.113Z,8.4
2019-04-22T08:07:17.266Z,7.7
2019-04-22T08:09:50.627Z,9.5
2019-04-22T08:12:57.525Z,8.5
2019-04-22T08:16:02.379Z,7.4
2019-04-22T08:18:53.833Z,9.8
2019-04-22T08:24:01.038Z,8.9
2019-04-22T08:29:14.336Z,15.9
2019-04-22T08:34:01.486Z,11.5
2019-04-22T08:36:53.117Z,8.8
2019-04-22T08:42:42.731Z,6.9
2019-04-22T08:45:43.913Z,9.8
2019-04-22T08:48:14.844Z,7.1
2019-04-22T08:51:20.680Z,7.6
2019-04-22T08:56:29.059Z,8.4
2019-04-22T08:59:14.757Z,6.6
2019-04-22T09:02:19.439Z,6.2
2019-04-22T09:04:47.847Z,7.1
2019-04-22T09:08:13.558Z,6.6
2019-04-22T09:13:00.451Z,5.1
2019-04-22T09:15:55.249Z,6.1
2019-04-22T09:19:11.848Z,6.3
2019-04-22T09:22:04.304Z,8.6
2019-04-22T09:24:55.885Z,15.6
2019-04-22T09:27:42.529Z,6.5
2019-04-22T09:30:33.949Z,5.5
2019-04-22T09:35:51.189Z,6.7
2019-04-22T09:39:00.468Z,7
2019-04-22T09:41:38.808Z,5.5
2019-04-22T09:46:34.228Z,6.7
2019-04-22T09:49:44.114Z,5.1
2019-04-22T09:52:09.994Z,7.3
2019-04-22T09:56:54.852Z,4.9
2019-04-22T10:00:02.047Z,7.4
2019-04-22T10:03:13.443Z,6.9
2019-04-22T10:06:16.278Z,13.6
2019-04-22T10:09:25.763Z,7.5
2019-04-22T10:11:54.916Z,7.5
2019-04-22T10:14:59.714Z,7.1
2019-04-22T10:20:05.258Z,7.5
2019-04-22T10:22:56.932Z,6.8
2019-04-22T10:32:23.963Z,5.3
2019-04-22T10:34:56.906Z,9.4
2019-04-22T10:37:09.726Z,6.5
2019-04-22T10:39:18.110Z,7.1
2019-04-22T10:41:20.672Z,5.4
2019-04-22T10:43:23.189Z,7.2
2019-04-22T10:45:26.051Z,7.7
2019-04-22T10:47:27.938Z,6.6
2019-04-22T10:49:30.570Z,6.2
2019-04-22T10:51:32.631Z,6.6
2019-04-22T10:53:35.394Z,5.3
2019-04-22T10:55:37.507Z,5.1
2019-04-22T10:57:44.710Z,8.1
2019-04-22T10:59:46.848Z,6.3
2019-04-22T11:01:48.687Z,5.1
2019-04-22T11:03:51.059Z,6.2
2019-04-22T11:05:54.125Z,5.4
2019-04-22T11:07:59.325Z,5.1
2019-04-22T11:10:20.251Z,6.8
2019-04-22T11:12:30.734Z,5.9
2019-04-22T11:14:37.740Z,6.6
2019-04-22T11:16:45.489Z,6
2019-04-22T11:18:47.539Z,4.9
2019-04-22T11:20:49.519Z,5.3
2019-04-22T11:22:51.096Z,5.9
2019-04-22T11:24:53.043Z,4.9
2019-04-22T11:26:58.805Z,5.5
2019-04-22T11:29:01.455Z,6.8
2019-04-22T11:31:02.969Z,6.4
2019-04-22T11:33:04.586Z,4.2
2019-04-22T11:35:06.005Z,4.9
2019-04-22T11:37:07.447Z,6
2019-04-22T11:39:10.800Z,6.1
2019-04-22T11:41:14.975Z,5
2019-04-22T11:43:16.734Z,4.6
2019-04-22T11:45:19.323Z,4.8
2019-04-22T11:47:21.393Z,6.3
2019-04-22T11:49:23.654Z,6.7
2019-04-22T11:51:25.101Z,4.6
2019-04-22T11:53:26.946Z,5.1
2019-04-22T11:55:28.733Z,5.2
2019-04-22T11:57:30.822Z,4.2
2019-04-22T11:59:32.971Z,4.7
2019-04-22T12:01:34.919Z,4.1
2019-04-22T12:03:37.880Z,5.5
2019-04-22T12:05:39.816Z,4.4
2019-04-22T12:07:42.372Z,5.4
2019-04-22T12:09:43.833Z,5.7
2019-04-22T12:11:46.758Z,4.3
2019-04-22T12:13:48.392Z,4
2019-04-22T12:15:51.037Z,4.3
2019-04-22T12:17:53.057Z,4.4
2019-04-22T12:19:55.774Z,5.3
2019-04-22T12:21:57.337Z,4.4
2019-04-22T12:23:59.170Z,3.7
2019-04-22T12:26:05.584Z,4.8
2019-04-22T12:28:15.022Z,7.6
2019-04-22T12:30:16.827Z,14.8
2019-04-22T12:32:18.259Z,9.7
2019-04-22T12:34:19.711Z,3.9
2019-04-22T12:36:22.490Z,4.6
2019-04-22T12:38:24.149Z,3.9
2019-04-22T12:40:32.606Z,4.1
2019-04-22T12:42:47.153Z,3.4
2019-04-22T12:44:49.571Z,4.4
2019-04-22T12:46:52.534Z,3.3
2019-04-22T12:48:54.001Z,3.6
2019-04-22T12:50:56.777Z,4.2
2019-04-22T12:53:03.585Z,3.6
2019-04-22T12:55:13.873Z,4.7
2019-04-22T12:57:16.784Z,4.8
2019-04-22T12:59:19.310Z,3.6
2019-04-22T13:01:21.202Z,3.1
2019-04-22T13:03:22.717Z,4.6
2019-04-22T13:05:26.710Z,3.1
2019-04-22T13:07:29.503Z,3.5
2019-04-22T13:09:31.508Z,5.8
2019-04-22T13:11:36.003Z,3.7
2019-04-22T13:13:40.850Z,4.3
2019-04-22T13:15:42.319Z,3.2
2019-04-22T13:17:44.320Z,4.7
2019-04-22T13:19:45.754Z,4.6
2019-04-22T13:21:47.220Z,3.3
2019-04-22T13:23:48.906Z,3.1
2019-04-22T13:25:50.297Z,4
2019-04-22T13:27:53.193Z,3.7
2019-04-22T13:29:55.152Z,3.3
2019-04-22T13:31:56.682Z,2.8
2019-04-22T13:34:01.437Z,3
2019-04-22T13:36:05.967Z,2.8
2019-04-22T13:38:08.934Z,2.9
2019-04-22T13:40:10.944Z,2.7
2019-04-22T13:42:16.079Z,5.3
2019-04-22T13:46:16.889Z,5.6
2019-04-22T13:48:30.920Z,2.7
2019-04-22T13:51:03.203Z,2.5
2019-04-22T13:58:48.195Z,3.4
2019-04-22T14:01:04.834Z,3.5
2019-04-22T14:03:06.771Z,3.9
2019-04-22T14:05:08.645Z,7.5
2019-04-22T14:07:10.580Z,8.8
2019-04-22T14:09:13.554Z,5.3
2019-04-22T14:11:25.567Z,2.8
2019-04-22T14:13:41.813Z,4.9
2019-04-22T14:15:43.834Z,4.4
2019-04-22T14:17:45.458Z,2.3
2019-04-22T14:19:46.868Z,3.6
2019-04-22T14:21:49.502Z,3
2019-04-22T14:23:51.103Z,10.9
2019-04-22T14:25:52.777Z,2.8
2019-04-22T14:27:59.989Z,3.4
2019-04-22T14:32:07.342Z,2.7
2019-04-22T14:36:15.184Z,4
2019-04-22T14:38:16.695Z,3.9
2019-04-22T14:40:20.648Z,2.6
2019-04-22T14:42:39.239Z,5.8
2019-04-22T14:45:27.910Z,3.1
2019-04-22T14:48:10.605Z,4.1
2019-04-22T14:51:06.970Z,4
2019-04-22T14:53:44.413Z,3.2
2019-04-22T14:56:04.709Z,4.5
2019-04-22T14:58:09.009Z,3.6
2019-04-22T15:00:12.042Z,5.4
2019-04-22T15:02:15.980Z,3.3
2019-04-22T15:04:17.598Z,3.5
2019-04-22T15:06:20.110Z,4.2
2019-04-22T15:08:21.616Z,6
2019-04-22T15:10:24.235Z,7.9
2019-04-22T15:12:34.005Z,4.2
2019-04-22T15:14:45.762Z,7.9
2019-04-22T15:16:47.220Z,4
2019-04-22T15:18:49.531Z,4.4
2019-04-22T15:20:52.654Z,3.5
2019-04-22T15:22:56.659Z,7
2019-04-22T15:24:58.547Z,4.8
2019-04-22T15:27:00.708Z,4.5
2019-04-22T15:29:05.147Z,4.2
2019-04-22T15:31:06.607Z,4.2
2019-04-22T15:33:09.305Z,4.4
2019-04-22T15:35:11.447Z,6.2
2019-04-22T15:37:13.942Z,4.9
2019-04-22T15:39:15.576Z,5.2
2019-04-22T15:41:16.996Z,4.9
2019-04-22T15:43:18.410Z,3.5
2019-04-22T15:45:20.489Z,4.4
2019-04-22T15:47:25.238Z,6.3
2019-04-22T15:49:27.816Z,5.3
2019-04-22T15:51:29.306Z,4.7
2019-04-22T15:53:33.431Z,4.7
2019-04-22T15:55:36.708Z,7.5
2019-04-22T15:57:39.727Z,5.2
2019-04-22T15:59:53.609Z,4.1
2019-04-22T16:02:15.978Z,5.8
2019-04-22T16:04:18.724Z,6.5
2019-04-22T16:06:20.312Z,5.2
2019-04-22T16:08:24.692Z,4.5
2019-04-22T16:10:26.232Z,5.9
2019-04-22T16:12:32.479Z,6
2019-04-22T16:14:49.400Z,5.1
2019-04-22T16:16:58.840Z,9.1
2019-04-22T16:19:00.666Z,5.5
2019-04-22T16:21:02.829Z,4.9
2019-04-22T16:23:05.567Z,6.5
2019-04-22T16:25:07.118Z,4.3
2019-04-22T16:27:08.737Z,4.5
2019-04-22T16:29:11.618Z,6.1
2019-04-22T16:31:13.497Z,5.1
2019-04-22T16:33:15.225Z,7.3
2019-04-22T16:35:16.954Z,5.2
2019-04-22T16:37:18.863Z,3.8
2019-04-22T16:39:20.752Z,5
2019-04-22T16:41:22.207Z,4.9
2019-04-22T16:43:24.675Z,5.1
2019-04-22T16:45:27.311Z,6
2019-04-22T16:47:28.790Z,5.8
2019-04-22T16:49:31.618Z,6.3
2019-04-22T16:51:33.864Z,4.8
2019-04-22T16:53:36.710Z,3.9
2019-04-22T16:55:39.136Z,4.6
2019-04-22T16:57:42.073Z,4.1
2019-04-22T16:59:44.597Z,4.1
2019-04-22T17:01:46.326Z,5.7
2019-04-22T17:03:48.798Z,5.1
2019-04-22T17:05:51.662Z,7.1
2019-04-22T17:07:54.252Z,4.9
2019-04-22T17:09:55.705Z,4.8
2019-04-22T17:11:58.063Z,4.9
2019-04-22T17:13:59.504Z,4.5
2019-04-22T17:16:02.262Z,5.9
2019-04-22T17:18:05.122Z,5.3
2019-04-22T17:20:07.245Z,7.3
2019-04-22T17:22:08.827Z,6.1
2019-04-22T17:24:11.806Z,5
2019-04-22T17:26:14.651Z,5.8
2019-04-22T17:28:17.450Z,6.6
2019-04-22T17:30:20.096Z,5
2019-04-22T17:32:23.410Z,4.4
2019-04-22T17:34:29.607Z,5.2
2019-04-22T17:36:31.913Z,5
2019-04-22T17:38:42.532Z,7
2019-04-22T17:41:11.237Z,8.2
2019-04-22T17:43:53.653Z,6.2
2019-04-22T17:46:48.108Z,6.2
2019-04-22T17:49:31.217Z,5.7
2019-04-22T17:52:04.075Z,5.2
2019-04-22T17:54:36.990Z,3.1
2019-04-22T17:57:23.644Z,6.6
2019-04-22T18:00:06.013Z,9
2019-04-22T18:02:48.256Z,3.9
2019-04-22T18:05:07.253Z,4.9
2019-04-22T18:07:34.039Z,2.9
2019-04-22T18:10:30.630Z,3
2019-04-22T18:13:24.933Z,5.3
2019-04-22T18:16:24.114Z,9.2
2019-04-22T18:19:09.829Z,6.5
2019-04-22T18:21:47.431Z,3.1
2019-04-22T18:24:18.121Z,3.5
2019-04-22T18:26:53.025Z,3.9
2019-04-22T18:29:26.932Z,2.6
2019-04-22T18:31:57.515Z,3
2019-04-22T18:34:25.349Z,3.8
2019-04-22T18:37:03.805Z,3.7
2019-04-22T18:39:46.219Z,3.8
2019-04-22T18:42:30.932Z,4.1
2019-04-22T18:45:39.254Z,4.4
2019-04-22T18:48:16.141Z,5.1
2019-04-22T18:50:54.928Z,4.7
2019-04-22T18:53:53.514Z,3.2
2019-04-22T18:56:46.383Z,4.2
2019-04-22T18:59:18.205Z,3.5
2019-04-22T19:01:30.070Z,2.7
2019-04-22T19:03:36.354Z,3
2019-04-22T19:08:22.439Z,3.5
2019-04-22T19:10:57.377Z,4
2019-04-22T19:14:02.154Z,2.5
2019-04-22T19:16:51.654Z,3.4
2019-04-22T19:19:32.088Z,3.7
2019-04-22T19:22:07.294Z,3.3
2019-04-22T19:24:59.750Z,3.7
2019-04-22T19:27:24.628Z,2.6
2019-04-22T19:30:10.377Z,3
2019-04-22T19:32:37.996Z,3.7
2019-04-22T19:35:03.200Z,2.8
2019-04-22T19:37:44.998Z,2.9
2019-04-22T19:40:23.761Z,3.8
2019-04-22T19:42:56.025Z,11
2019-04-22T19:45:19.738Z,5.2
2019-04-22T19:48:21.271Z,3.9
2019-04-22T19:53:09.565Z,3.5
2019-04-22T19:55:40.574Z,4.9
2019-04-22T19:58:17.998Z,4.2
2019-04-22T20:00:50.567Z,3.1
2019-04-22T20:03:28.661Z,2.4
2019-04-22T20:06:33.174Z,3.7
2019-04-22T20:09:13.153Z,3.9
2019-04-22T20:12:10.401Z,6
2019-04-22T20:14:49.270Z,3.6
2019-04-22T20:17:31.448Z,2.4
2019-04-22T20:22:56.144Z,2.3
2019-04-22T20:25:40.538Z,2.5
2019-04-22T20:28:30.715Z,4.2
2019-04-22T20:34:14.042Z,3
2019-04-22T20:37:10.082Z,4.8
2019-04-22T20:39:51.739Z,5.7
2019-04-22T20:42:43.067Z,4.9
2019-04-22T20:45:45.413Z,3.3
2019-04-22T20:48:07.726Z,3.8
2019-04-22T20:51:03.651Z,5.2
2019-04-22T20:54:01.920Z,4.1
2019-04-22T20:56:36.677Z,2.8
2019-04-22T20:59:23.662Z,3.9
2019-04-22T21:02:06.223Z,4.3
2019-04-22T21:04:41.014Z,7.2
2019-04-22T21:07:13.328Z,5.6
2019-04-22T21:09:53.635Z,3.7
2019-04-22T21:12:30.203Z,3.1
2019-04-22T21:15:12.036Z,2.7
2019-04-22T21:17:38.597Z,3.8
2019-04-22T21:20:31.597Z,3.9
2019-04-22T21:23:18.722Z,2.7
2019-04-22T21:25:54.756Z,5.8
2019-04-22T21:28:42.857Z,4.3
2019-04-22T21:31:29.226Z,4.9
2019-04-22T21:34:09.334Z,4.8
2019-04-22T21:36:47.695Z,4.7
2019-04-22T21:39:30.060Z,4.5
2019-04-22T21:41:58.568Z,3
2019-04-22T21:44:30.363Z,5.8
2019-04-22T21:49:10.623Z,3.8
2019-04-22T21:51:53.197Z,3.9
2019-04-22T21:54:51.556Z,10.1
2019-04-22T21:57:27.435Z,4.5
2019-04-22T22:00:35.642Z,5.4
2019-04-22T22:03:29.765Z,7.1
2019-04-22T22:06:19.456Z,6.1
2019-04-22T22:09:00.802Z,3.5
2019-04-22T22:13:49.989Z,3.9
2019-04-22T22:16:22.834Z,4.1
2019-04-22T22:19:06.454Z,3.6
2019-04-22T22:21:56.825Z,2.8
2019-04-22T22:24:37.957Z,3.6
2019-04-22T22:27:29.914Z,3.1
2019-04-22T22:32:25.313Z,3.3
2019-04-22T22:35:02.513Z,3.6
2019-04-22T22:37:44.328Z,4.5
2019-04-22T22:40:15.365Z,5
2019-04-22T22:42:31.031Z,4.1
2019-04-22T22:44:48.444Z,3.8
2019-04-22T22:47:23.742Z,5.3
2019-04-22T22:50:08.834Z,3.6
2019-04-22T22:53:06.433Z,8
2019-04-22T22:55:44.200Z,4.5
2019-04-22T22:58:40.621Z,3.6
2019-04-22T23:01:35.650Z,4.6
2019-04-22T23:04:08.558Z,4.9
2019-04-22T23:07:00.171Z,6.2
2019-04-22T23:10:05.911Z,4.6
2019-04-22T23:12:59.745Z,5.4
2019-04-22T23:15:49.959Z,4.9
2019-04-22T23:18:03.700Z,4.1
2019-04-22T23:20:06.864Z,4.3
2019-04-22T23:22:17.746Z,6.8
2019-04-22T23:24:48.020Z,5.1
2019-04-22T23:27:41.678Z,4.8
2019-04-22T23:30:19.193Z,5.7
2019-04-22T23:32:43.416Z,7
2019-04-22T23:35:28.133Z,6.6
2019-04-22T23:38:06.154Z,4.7
